0FD9 weather

Joy Farms Airport
Defuniak Springs, Florida, United States

Public forecast

Using degrees Fahrenheit for public forecast. Weather courtesy of forecast.io.

METAR (pilot weather report)

Closest report is Defuniak Springs Airport, 5.2 nm (9.7 km) NNW. Retrieved 2018/02/24 23:35 UTC (10 minutes ago):

K54J 242335Z AUTO 18004KT 10SM SCT075 SCT090 22/18 A3008 RMK AO2 T02180178

TAF (pilot weather forecast)

Forecast is more than 12 hours old.

Closest forecast is Duke Field, 21.4 nm (39.6 km) W. Retrieved 2018/02/24 02:20 UTC (21 hours ago):

TAF KEGI 240200Z 2402/2508 16008KT 9999 BKN005 BKN100 QNH3024INS TEMPO 2402/2404 SCT005 BKN100 BECMG 2403/2404 14005KT 4800 BR FEW005 SCT100 QNH3016INS BECMG 2404/2405 15005KT 1600 BR FEW004 SCT100 QNH3014INS TEMPO 2405/2406 0800 FG BECMG 2406/2407 15005KT 0800 FG SCT002 SCT012 BKN060 QNH2011INS BECMG 2413/2414 15012KT 9999 NSW BKN012 BKN030 QNH3007INS BECMG 2421/2422 18012KT 9999 FEW015 SCT030 BKN130 QNH3006INS BECMG 2503/2504 14005KT 9999 FEW005 BKN015 BKN100 QNH3005INS TX24/2420Z TN18/2409Z FCST BY USAF WX MET TECH LAST NO AMDS AFT 2406 NEXT AT 2603